sensor_id;sensor_type;location;lat;lon;timestamp;temperature;humidity
43862;DHT22;29510;52.140;5.034;2023-03-01T00:02:10;1.20;1.70
43862;DHT22;29510;52.140;5.034;2023-03-01T00:12:11;1.10;2.10
43862;DHT22;29510;52.140;5.034;2023-03-01T00:22:12;1.10;3.50
43862;DHT22;29510;52.140;5.034;2023-03-01T00:32:13;1.00;1.30
43862;DHT22;29510;52.140;5.034;2023-03-01T00:42:15;1.00;2.00
43862;DHT22;29510;52.140;5.034;2023-03-01T00:52:16;0.90;1.00
43862;DHT22;29510;52.140;5.034;2023-03-01T01:02:19;0.80;3.70
43862;DHT22;29510;52.140;5.034;2023-03-01T01:12:20;0.80;3.40
43862;DHT22;29510;52.140;5.034;2023-03-01T01:22:21;0.70;4.40
43862;DHT22;29510;52.140;5.034;2023-03-01T01:32:22;0.70;1.30
43862;DHT22;29510;52.140;5.034;2023-03-01T01:42:23;0.60;1.90
43862;DHT22;29510;52.140;5.034;2023-03-01T01:52:31;0.60;1.00
43862;DHT22;29510;52.140;5.034;2023-03-01T02:02:32;0.60;1.00
43862;DHT22;29510;52.140;5.034;2023-03-01T02:12:34;0.50;1.00
43862;DHT22;29510;52.140;5.034;2023-03-01T02:22:37;0.40;1.00
43862;DHT22;29510;52.140;5.034;2023-03-01T02:32:40;0.30;1.00
43862;DHT22;29510;52.140;5.034;2023-03-01T02:43:02;0.20;1.70
43862;DHT22;29510;52.140;5.034;2023-03-01T02:53:10;0.30;3.30
43862;DHT22;29510;52.140;5.034;2023-03-01T03:03:15;0.20;2.50
43862;DHT22;29510;52.140;5.034;2023-03-01T03:13:17;0.20;2.00
43862;DHT22;29510;52.140;5.034;2023-03-01T03:23:20;0.10;1.00
43862;DHT22;29510;52.140;5.034;2023-03-01T03:33:22;0.00;2.00
43862;DHT22;29510;52.140;5.034;2023-03-01T03:43:23;0.00;1.60
43862;DHT22;29510;52.140;5.034;2023-03-01T03:53:25;0.00;1.30
43862;DHT22;29510;52.140;5.034;2023-03-01T04:03:28;-0.10;1.00
43862;DHT22;29510;52.140;5.034;2023-03-01T04:13:30;-0.20;1.00
43862;DHT22;29510;52.140;5.034;2023-03-01T04:23:31;-0.20;1.00
43862;DHT22;29510;52.140;5.034;2023-03-01T04:33:32;-0.30;1.00
43862;DHT22;29510;52.140;5.034;2023-03-01T04:43:33;-0.30;1.00
43862;DHT22;29510;52.140;5.034;2023-03-01T04:53:35;-0.30;1.00
43862;DHT22;29510;52.140;5.034;2023-03-01T05:03:39;-0.40;1.00
43862;DHT22;29510;52.140;5.034;2023-03-01T05:13:41;-0.50;1.00
43862;DHT22;29510;52.140;5.034;2023-03-01T05:23:42;-0.60;1.00
43862;DHT22;29510;52.140;5.034;2023-03-01T05:33:43;-0.60;1.00
43862;DHT22;29510;52.140;5.034;2023-03-01T05:43:44;-0.60;1.00
43862;DHT22;29510;52.140;5.034;2023-03-01T05:53:45;-0.70;1.00
43862;DHT22;29510;52.140;5.034;2023-03-01T06:03:46;-0.70;1.00
43862;DHT22;29510;52.140;5.034;2023-03-01T06:13:47;-0.80;1.00
43862;DHT22;29510;52.140;5.034;2023-03-01T06:23:48;-0.90;1.00
43862;DHT22;29510;52.140;5.034;2023-03-01T06:33:50;-1.00;1.00
43862;DHT22;29510;52.140;5.034;2023-03-01T06:43:51;-0.90;1.00
43862;DHT22;29510;52.140;5.034;2023-03-01T06:53:52;-1.00;1.00
43862;DHT22;29510;52.140;5.034;2023-03-01T07:03:53;-1.00;2.20
43862;DHT22;29510;52.140;5.034;2023-03-01T07:13:54;-1.00;3.60
43862;DHT22;29510;52.140;5.034;2023-03-01T07:23:56;-0.80;4.50
43862;DHT22;29510;52.140;5.034;2023-03-01T07:33:57;-0.80;8.10
43862;DHT22;29510;52.140;5.034;2023-03-01T07:43:58;-0.70;12.80
43862;DHT22;29510;52.140;5.034;2023-03-01T07:53:59;-0.60;17.50
43862;DHT22;29510;52.140;5.034;2023-03-01T08:04:00;-0.40;25.20
43862;DHT22;29510;52.140;5.034;2023-03-01T08:14:02;-0.10;35.80
43862;DHT22;29510;52.140;5.034;2023-03-01T08:24:05;0.40;50.40
43862;DHT22;29510;52.140;5.034;2023-03-01T08:34:10;0.80;47.70
43862;DHT22;29510;52.140;5.034;2023-03-01T08:44:12;1.20;43.10
43862;DHT22;29510;52.140;5.034;2023-03-01T08:54:16;1.60;32.40
43862;DHT22;29510;52.140;5.034;2023-03-01T09:04:17;2.10;19.80
43862;DHT22;29510;52.140;5.034;2023-03-01T09:14:18;2.70;1.00
43862;DHT22;29510;52.140;5.034;2023-03-01T09:24:21;3.40;1.00
43862;DHT22;29510;52.140;5.034;2023-03-01T09:34:23;3.60;1.00
43862;DHT22;29510;52.140;5.034;2023-03-01T09:44:51;3.90;1.00
43862;DHT22;29510;52.140;5.034;2023-03-01T09:54:55;4.20;1.00
43862;DHT22;29510;52.140;5.034;2023-03-01T10:15:36;4.60;1.00
43862;DHT22;29510;52.140;5.034;2023-03-01T10:36:07;5.30;1.00
43862;DHT22;29510;52.140;5.034;2023-03-01T10:56:26;6.40;1.00
43862;DHT22;29510;52.140;5.034;2023-03-01T11:06:27;6.80;1.00
43862;DHT22;29510;52.140;5.034;2023-03-01T11:16:31;7.10;1.00
43862;DHT22;29510;52.140;5.034;2023-03-01T11:26:38;7.60;1.00
43862;DHT22;29510;52.140;5.034;2023-03-01T11:36:53;8.00;1.00
43862;DHT22;29510;52.140;5.034;2023-03-01T11:57:44;9.00;1.00
43862;DHT22;29510;52.140;5.034;2023-03-01T12:38:50;10.40;1.00
43862;DHT22;29510;52.140;5.034;2023-03-01T12:49:15;10.60;1.00
43862;DHT22;29510;52.140;5.034;2023-03-01T13:09:35;11.30;1.00
43862;DHT22;29510;52.140;5.034;2023-03-01T13:19:38;11.70;1.00
43862;DHT22;29510;52.140;5.034;2023-03-01T13:29:52;11.80;1.00
43862;DHT22;29510;52.140;5.034;2023-03-01T13:39:53;12.10;1.00
43862;DHT22;29510;52.140;5.034;2023-03-01T13:50:03;12.20;1.00
43862;DHT22;29510;52.140;5.034;2023-03-01T14:00:04;12.70;1.00
43862;DHT22;29510;52.140;5.034;2023-03-01T14:10:07;13.00;1.00
43862;DHT22;29510;52.140;5.034;2023-03-01T14:30:15;13.40;1.00
43862;DHT22;29510;52.140;5.034;2023-03-01T14:40:30;14.00;1.00
43862;DHT22;29510;52.140;5.034;2023-03-01T14:50:36;14.10;1.00
43862;DHT22;29510;52.140;5.034;2023-03-01T15:00:57;13.30;1.00
43862;DHT22;29510;52.140;5.034;2023-03-01T15:11:04;11.90;1.00
43862;DHT22;29510;52.140;5.034;2023-03-01T15:21:26;11.10;1.00
43862;DHT22;29510;52.140;5.034;2023-03-01T15:31:35;10.50;1.00
43862;DHT22;29510;52.140;5.034;2023-03-01T15:41:47;10.00;1.00
43862;DHT22;29510;52.140;5.034;2023-03-01T15:51:48;9.50;1.00
43862;DHT22;29510;52.140;5.034;2023-03-01T16:01:50;9.00;1.00
43862;DHT22;29510;52.140;5.034;2023-03-01T16:11:52;8.50;1.00
43862;DHT22;29510;52.140;5.034;2023-03-01T16:21:53;8.20;1.00
43862;DHT22;29510;52.140;5.034;2023-03-01T16:31:54;8.10;1.00
43862;DHT22;29510;52.140;5.034;2023-03-01T16:41:55;7.90;1.00
43862;DHT22;29510;52.140;5.034;2023-03-01T16:51:56;7.60;1.00
43862;DHT22;29510;52.140;5.034;2023-03-01T17:01:58;7.40;1.00
43862;DHT22;29510;52.140;5.034;2023-03-01T17:11:59;7.30;1.00
43862;DHT22;29510;52.140;5.034;2023-03-01T17:22:02;7.10;1.00
43862;DHT22;29510;52.140;5.034;2023-03-01T17:32:04;7.00;1.00
43862;DHT22;29510;52.140;5.034;2023-03-01T17:42:05;6.60;1.00
43862;DHT22;29510;52.140;5.034;2023-03-01T17:52:06;6.40;1.00
43862;DHT22;29510;52.140;5.034;2023-03-01T18:02:11;6.20;1.00
43862;DHT22;29510;52.140;5.034;2023-03-01T18:12:12;6.10;1.00
43862;DHT22;29510;52.140;5.034;2023-03-01T18:22:13;5.80;1.00
43862;DHT22;29510;52.140;5.034;2023-03-01T18:32:14;5.60;1.00
43862;DHT22;29510;52.140;5.034;2023-03-01T18:42:15;5.50;1.00
43862;DHT22;29510;52.140;5.034;2023-03-01T18:52:16;5.30;1.00
43862;DHT22;29510;52.140;5.034;2023-03-01T19:02:17;5.00;1.00
43862;DHT22;29510;52.140;5.034;2023-03-01T19:12:18;5.00;1.00
43862;DHT22;29510;52.140;5.034;2023-03-01T19:22:20;4.80;1.00
43862;DHT22;29510;52.140;5.034;2023-03-01T19:32:21;4.60;1.00
43862;DHT22;29510;52.140;5.034;2023-03-01T19:42:22;4.40;1.00
43862;DHT22;29510;52.140;5.034;2023-03-01T19:52:27;4.20;1.00
43862;DHT22;29510;52.140;5.034;2023-03-01T20:02:28;4.10;1.00
43862;DHT22;29510;52.140;5.034;2023-03-01T20:12:29;4.00;1.00
43862;DHT22;29510;52.140;5.034;2023-03-01T20:22:30;4.00;1.00
43862;DHT22;29510;52.140;5.034;2023-03-01T20:32:32;3.90;1.00
43862;DHT22;29510;52.140;5.034;2023-03-01T20:42:33;3.90;1.00
43862;DHT22;29510;52.140;5.034;2023-03-01T20:52:34;3.90;1.00
43862;DHT22;29510;52.140;5.034;2023-03-01T21:02:35;3.90;1.00
43862;DHT22;29510;52.140;5.034;2023-03-01T21:12:38;3.70;1.00
43862;DHT22;29510;52.140;5.034;2023-03-01T21:22:39;3.60;1.00
43862;DHT22;29510;52.140;5.034;2023-03-01T21:32:40;3.50;1.00
43862;DHT22;29510;52.140;5.034;2023-03-01T21:42:41;3.50;1.00
43862;DHT22;29510;52.140;5.034;2023-03-01T21:52:44;3.20;1.00
43862;DHT22;29510;52.140;5.034;2023-03-01T22:02:45;3.00;1.00
43862;DHT22;29510;52.140;5.034;2023-03-01T22:12:46;2.90;1.00
43862;DHT22;29510;52.140;5.034;2023-03-01T22:22:47;2.80;1.00
43862;DHT22;29510;52.140;5.034;2023-03-01T22:32:50;2.70;1.00
43862;DHT22;29510;52.140;5.034;2023-03-01T22:42:51;2.70;1.00
43862;DHT22;29510;52.140;5.034;2023-03-01T22:52:53;2.60;1.00
43862;DHT22;29510;52.140;5.034;2023-03-01T23:02:54;2.60;1.00
43862;DHT22;29510;52.140;5.034;2023-03-01T23:12:56;2.50;1.00
43862;DHT22;29510;52.140;5.034;2023-03-01T23:22:57;2.50;1.00
43862;DHT22;29510;52.140;5.034;2023-03-01T23:33:01;2.50;1.00
43862;DHT22;29510;52.140;5.034;2023-03-01T23:43:02;2.50;1.00
43862;DHT22;29510;52.140;5.034;2023-03-01T23:53:03;2.60;1.00
